LFRO/LAI METAR and TAF weather

Enter ICAO airport designator
Station Type Date Time Source
LFRO METAR 2019/12/10 06:00 UTC NOAA

LFRO 100600Z AUTO 18006KT 150V210 9999 OVC025 08/05 Q1022


Station Type Date Time Source
LFRO Decoded METAR 2019/12/10 06:00 UTC NOAA

Lannion / Servel, France (LFRO) 48-45N 003-28W
Dec 10, 2019 - 01:00 AM EST / 2019.12.10 0600 UTC
Wind: from the S (180 degrees) at 7 MPH (6 KT) (direction variable):0
Visibility: greater than 7 mile(s):0
Sky conditions: overcast
Temperature: 46 F (8 C)
Dew Point: 41 F (5 C)
Relative Humidity: 81%
Pressure (altimeter): 30.18 in. Hg (1022 hPa)
ob: LFRO 100600Z AUTO 18006KT 150V210 9999 OVC025 08/05 Q1022
cycle: 6

Station Type Date Time Source
LFRO TAF 2019/05/15 19:06 UTC NOAA

TAF LFRO 151936Z 1519/1612 CNL

Example: see airport list